sensor_id;sensor_type;location;lat;lon;timestamp;pressure;altitude;pressure_sealevel;temperature;humidity
21361;BME280;10839;43.206;23.550;2022-12-07T00:01:17;97245.22;;;4.81;100.00
21361;BME280;10839;43.206;23.550;2022-12-07T00:03:45;97247.91;;;5.06;100.00
21361;BME280;10839;43.206;23.550;2022-12-07T00:06:13;97237.50;;;4.95;100.00
21361;BME280;10839;43.206;23.550;2022-12-07T00:08:41;97253.34;;;4.71;100.00
21361;BME280;10839;43.206;23.550;2022-12-07T00:11:10;97253.09;;;4.82;100.00
21361;BME280;10839;43.206;23.550;2022-12-07T00:13:37;97255.56;;;5.09;100.00
21361;BME280;10839;43.206;23.550;2022-12-07T00:16:09;97249.44;;;5.09;100.00
21361;BME280;10839;43.206;23.550;2022-12-07T00:18:36;97253.19;;;4.98;100.00
21361;BME280;10839;43.206;23.550;2022-12-07T00:21:12;97248.97;;;5.21;100.00
21361;BME280;10839;43.206;23.550;2022-12-07T00:23:40;97249.16;;;5.28;100.00
21361;BME280;10839;43.206;23.550;2022-12-07T00:26:09;97248.56;;;5.08;100.00
21361;BME280;10839;43.206;23.550;2022-12-07T00:28:36;97249.91;;;5.12;100.00
21361;BME280;10839;43.206;23.550;2022-12-07T00:31:09;97243.06;;;5.36;100.00
21361;BME280;10839;43.206;23.550;2022-12-07T00:33:36;97236.22;;;5.07;100.00
21361;BME280;10839;43.206;23.550;2022-12-07T00:36:07;97239.69;;;4.74;100.00
21361;BME280;10839;43.206;23.550;2022-12-07T00:38:36;97240.81;;;5.23;100.00
21361;BME280;10839;43.206;23.550;2022-12-07T00:41:09;97224.41;;;5.10;100.00
21361;BME280;10839;43.206;23.550;2022-12-07T00:43:35;97229.56;;;4.78;100.00
21361;BME280;10839;43.206;23.550;2022-12-07T00:46:02;97217.44;;;4.83;100.00
21361;BME280;10839;43.206;23.550;2022-12-07T00:48:28;97212.50;;;4.96;100.00
21361;BME280;10839;43.206;23.550;2022-12-07T00:50:55;97222.13;;;4.89;100.00
21361;BME280;10839;43.206;23.550;2022-12-07T00:53:21;97205.97;;;4.57;100.00
21361;BME280;10839;43.206;23.550;2022-12-07T00:55:47;97223.63;;;4.84;100.00
21361;BME280;10839;43.206;23.550;2022-12-07T00:58:13;97222.38;;;4.70;100.00
21361;BME280;10839;43.206;23.550;2022-12-07T01:00:41;97230.50;;;4.43;100.00
21361;BME280;10839;43.206;23.550;2022-12-07T01:03:08;97230.00;;;4.65;100.00
21361;BME280;10839;43.206;23.550;2022-12-07T01:05:35;97225.13;;;4.86;100.00
21361;BME280;10839;43.206;23.550;2022-12-07T01:08:01;97225.47;;;4.91;100.00
21361;BME280;10839;43.206;23.550;2022-12-07T01:10:27;97227.78;;;4.86;100.00
21361;BME280;10839;43.206;23.550;2022-12-07T01:12:54;97234.94;;;5.19;100.00
21361;BME280;10839;43.206;23.550;2022-12-07T01:15:20;97234.44;;;5.16;100.00
21361;BME280;10839;43.206;23.550;2022-12-07T01:17:45;97233.91;;;5.12;100.00
21361;BME280;10839;43.206;23.550;2022-12-07T01:20:12;97232.13;;;5.21;100.00
21361;BME280;10839;43.206;23.550;2022-12-07T01:22:40;97232.03;;;5.31;100.00
21361;BME280;10839;43.206;23.550;2022-12-07T01:25:07;97227.31;;;5.24;100.00
21361;BME280;10839;43.206;23.550;2022-12-07T01:27:34;97229.88;;;5.00;100.00
21361;BME280;10839;43.206;23.550;2022-12-07T01:30:01;97228.34;;;5.32;100.00
21361;BME280;10839;43.206;23.550;2022-12-07T01:32:27;97225.31;;;5.27;100.00
21361;BME280;10839;43.206;23.550;2022-12-07T01:34:54;97224.63;;;5.16;100.00
21361;BME280;10839;43.206;23.550;2022-12-07T01:37:20;97225.97;;;5.20;100.00
21361;BME280;10839;43.206;23.550;2022-12-07T01:39:49;97225.88;;;5.38;100.00
21361;BME280;10839;43.206;23.550;2022-12-07T01:42:15;97221.97;;;5.24;100.00
21361;BME280;10839;43.206;23.550;2022-12-07T01:47:53;97206.06;;;5.41;100.00
21361;BME280;10839;43.206;23.550;2022-12-07T01:50:26;97200.72;;;5.41;100.00
21361;BME280;10839;43.206;23.550;2022-12-07T01:52:54;97194.41;;;5.08;100.00
21361;BME280;10839;43.206;23.550;2022-12-07T01:55:22;97189.66;;;5.28;100.00
21361;BME280;10839;43.206;23.550;2022-12-07T01:57:51;97190.63;;;5.18;100.00
21361;BME280;10839;43.206;23.550;2022-12-07T02:00:19;97200.84;;;4.97;100.00
21361;BME280;10839;43.206;23.550;2022-12-07T02:03:07;97197.88;;;5.00;100.00
21361;BME280;10839;43.206;23.550;2022-12-07T02:05:38;97191.34;;;5.29;100.00
21361;BME280;10839;43.206;23.550;2022-12-07T02:08:07;97202.81;;;5.29;100.00
21361;BME280;10839;43.206;23.550;2022-12-07T02:10:34;97187.94;;;5.10;100.00
21361;BME280;10839;43.206;23.550;2022-12-07T02:13:16;97196.00;;;5.35;100.00
21361;BME280;10839;43.206;23.550;2022-12-07T02:40:48;97178.91;;;5.03;100.00
21361;BME280;10839;43.206;23.550;2022-12-07T02:43:27;97175.66;;;4.58;100.00
21361;BME280;10839;43.206;23.550;2022-12-07T02:45:58;97171.63;;;4.54;100.00
21361;BME280;10839;43.206;23.550;2022-12-07T02:48:27;97170.31;;;4.58;100.00
21361;BME280;10839;43.206;23.550;2022-12-07T02:50:54;97158.03;;;4.40;100.00
21361;BME280;10839;43.206;23.550;2022-12-07T02:53:40;97152.47;;;4.25;100.00
21361;BME280;10839;43.206;23.550;2022-12-07T03:00:19;97154.47;;;4.49;100.00
21361;BME280;10839;43.206;23.550;2022-12-07T03:10:57;97154.78;;;4.03;100.00
21361;BME280;10839;43.206;23.550;2022-12-07T03:16:05;97145.34;;;4.08;100.00
21361;BME280;10839;43.206;23.550;2022-12-07T03:18:47;97153.91;;;3.94;100.00
21361;BME280;10839;43.206;23.550;2022-12-07T03:21:18;97146.50;;;4.06;100.00
21361;BME280;10839;43.206;23.550;2022-12-07T03:23:49;97147.94;;;4.00;100.00
21361;BME280;10839;43.206;23.550;2022-12-07T03:26:19;97146.56;;;3.96;100.00
21361;BME280;10839;43.206;23.550;2022-12-07T03:28:52;97149.31;;;4.04;100.00
21361;BME280;10839;43.206;23.550;2022-12-07T03:31:29;97150.66;;;4.08;100.00
21361;BME280;10839;43.206;23.550;2022-12-07T03:37:12;97150.84;;;3.89;100.00
21361;BME280;10839;43.206;23.550;2022-12-07T03:39:48;97149.16;;;3.88;100.00
21361;BME280;10839;43.206;23.550;2022-12-07T03:42:20;97145.06;;;3.93;100.00
21361;BME280;10839;43.206;23.550;2022-12-07T03:44:46;97148.41;;;3.78;100.00
21361;BME280;10839;43.206;23.550;2022-12-07T03:47:20;97151.59;;;3.99;100.00
21361;BME280;10839;43.206;23.550;2022-12-07T03:49:57;97165.41;;;4.20;100.00
21361;BME280;10839;43.206;23.550;2022-12-07T03:52:52;97148.84;;;3.91;100.00
21361;BME280;10839;43.206;23.550;2022-12-07T03:55:35;97165.06;;;3.98;100.00
21361;BME280;10839;43.206;23.550;2022-12-07T03:58:09;97160.78;;;4.05;100.00
21361;BME280;10839;43.206;23.550;2022-12-07T04:00:37;97156.47;;;3.86;100.00
21361;BME280;10839;43.206;23.550;2022-12-07T04:03:03;97151.22;;;3.94;100.00
21361;BME280;10839;43.206;23.550;2022-12-07T04:05:29;97143.47;;;4.01;100.00
21361;BME280;10839;43.206;23.550;2022-12-07T04:07:55;97148.25;;;3.97;100.00
21361;BME280;10839;43.206;23.550;2022-12-07T04:10:22;97133.84;;;3.82;100.00
21361;BME280;10839;43.206;23.550;2022-12-07T04:12:48;97128.63;;;3.98;100.00
21361;BME280;10839;43.206;23.550;2022-12-07T04:15:14;97121.31;;;4.00;100.00
21361;BME280;10839;43.206;23.550;2022-12-07T04:17:40;97103.25;;;3.86;100.00
21361;BME280;10839;43.206;23.550;2022-12-07T04:20:06;97112.22;;;3.85;100.00
21361;BME280;10839;43.206;23.550;2022-12-07T04:22:33;97119.66;;;3.99;100.00
21361;BME280;10839;43.206;23.550;2022-12-07T04:25:00;97124.03;;;4.08;100.00
21361;BME280;10839;43.206;23.550;2022-12-07T04:27:26;97113.28;;;3.92;100.00
21361;BME280;10839;43.206;23.550;2022-12-07T04:29:52;97113.97;;;3.94;100.00
21361;BME280;10839;43.206;23.550;2022-12-07T04:32:18;97116.00;;;4.00;100.00
21361;BME280;10839;43.206;23.550;2022-12-07T04:34:44;97101.59;;;3.85;100.00
21361;BME280;10839;43.206;23.550;2022-12-07T04:37:10;97108.91;;;3.65;100.00
21361;BME280;10839;43.206;23.550;2022-12-07T04:39:36;97102.69;;;4.00;100.00
21361;BME280;10839;43.206;23.550;2022-12-07T04:42:02;97096.91;;;4.05;100.00
21361;BME280;10839;43.206;23.550;2022-12-07T04:44:30;97108.88;;;3.83;100.00
21361;BME280;10839;43.206;23.550;2022-12-07T04:46:56;97099.19;;;3.74;100.00
21361;BME280;10839;43.206;23.550;2022-12-07T04:49:22;97107.66;;;3.95;100.00
21361;BME280;10839;43.206;23.550;2022-12-07T04:51:49;97102.53;;;4.02;100.00
21361;BME280;10839;43.206;23.550;2022-12-07T04:54:15;97105.78;;;3.87;100.00
21361;BME280;10839;43.206;23.550;2022-12-07T04:56:42;97105.69;;;3.97;100.00
21361;BME280;10839;43.206;23.550;2022-12-07T04:59:18;97109.75;;;4.09;100.00
21361;BME280;10839;43.206;23.550;2022-12-07T05:01:44;97101.47;;;4.12;100.00
21361;BME280;10839;43.206;23.550;2022-12-07T05:04:10;97102.00;;;3.98;100.00
21361;BME280;10839;43.206;23.550;2022-12-07T05:06:56;97086.16;;;4.14;100.00
21361;BME280;10839;43.206;23.550;2022-12-07T05:09:21;97097.41;;;4.08;100.00
21361;BME280;10839;43.206;23.550;2022-12-07T05:11:47;97105.03;;;4.03;100.00
21361;BME280;10839;43.206;23.550;2022-12-07T05:14:18;97105.25;;;4.10;100.00
21361;BME280;10839;43.206;23.550;2022-12-07T05:16:48;97095.50;;;4.18;100.00
21361;BME280;10839;43.206;23.550;2022-12-07T05:19:16;97112.06;;;4.04;100.00
21361;BME280;10839;43.206;23.550;2022-12-07T05:21:42;97098.97;;;3.93;100.00
21361;BME280;10839;43.206;23.550;2022-12-07T05:24:11;97106.47;;;4.15;100.00
21361;BME280;10839;43.206;23.550;2022-12-07T05:26:37;97094.81;;;4.16;100.00
21361;BME280;10839;43.206;23.550;2022-12-07T05:29:04;97102.69;;;4.00;100.00
21361;BME280;10839;43.206;23.550;2022-12-07T05:31:55;97104.72;;;4.06;100.00
21361;BME280;10839;43.206;23.550;2022-12-07T05:34:21;97091.78;;;4.11;100.00
21361;BME280;10839;43.206;23.550;2022-12-07T05:36:47;97077.50;;;4.12;100.00
21361;BME280;10839;43.206;23.550;2022-12-07T05:39:13;97086.31;;;3.87;100.00
21361;BME280;10839;43.206;23.550;2022-12-07T05:41:38;97086.16;;;4.14;100.00
21361;BME280;10839;43.206;23.550;2022-12-07T05:44:25;97078.75;;;4.00;100.00
21361;BME280;10839;43.206;23.550;2022-12-07T05:46:51;97081.66;;;3.89;100.00
21361;BME280;10839;43.206;23.550;2022-12-07T05:49:17;97082.69;;;3.96;100.00
21361;BME280;10839;43.206;23.550;2022-12-07T05:51:57;97079.78;;;4.07;100.00
21361;BME280;10839;43.206;23.550;2022-12-07T05:54:23;97070.06;;;3.98;100.00
21361;BME280;10839;43.206;23.550;2022-12-07T05:56:49;97075.34;;;3.90;100.00
21361;BME280;10839;43.206;23.550;2022-12-07T05:59:15;97076.16;;;4.16;100.00
21361;BME280;10839;43.206;23.550;2022-12-07T06:01:56;97076.53;;;4.21;100.00
21361;BME280;10839;43.206;23.550;2022-12-07T06:04:24;97083.44;;;4.06;100.00
21361;BME280;10839;43.206;23.550;2022-12-07T06:06:51;97086.06;;;4.24;100.00
21361;BME280;10839;43.206;23.550;2022-12-07T06:09:18;97078.19;;;4.14;100.00
21361;BME280;10839;43.206;23.550;2022-12-07T06:11:44;97082.81;;;4.12;100.00
21361;BME280;10839;43.206;23.550;2022-12-07T06:14:29;97094.03;;;3.98;100.00
21361;BME280;10839;43.206;23.550;2022-12-07T06:16:55;97093.69;;;4.19;100.00
21361;BME280;10839;43.206;23.550;2022-12-07T06:19:21;97091.50;;;4.14;100.00
21361;BME280;10839;43.206;23.550;2022-12-07T06:21:46;97094.91;;;4.07;100.00
21361;BME280;10839;43.206;23.550;2022-12-07T06:24:14;97101.81;;;4.17;100.00
21361;BME280;10839;43.206;23.550;2022-12-07T06:26:40;97105.00;;;4.21;100.00
21361;BME280;10839;43.206;23.550;2022-12-07T06:29:09;97103.56;;;4.34;100.00
21361;BME280;10839;43.206;23.550;2022-12-07T06:31:36;97104.81;;;4.14;100.00
21361;BME280;10839;43.206;23.550;2022-12-07T06:34:12;97107.63;;;4.46;100.00
21361;BME280;10839;43.206;23.550;2022-12-07T06:36:38;97108.84;;;4.52;100.00
21361;BME280;10839;43.206;23.550;2022-12-07T06:39:05;97109.59;;;4.36;100.00
21361;BME280;10839;43.206;23.550;2022-12-07T06:41:38;97108.38;;;4.56;100.00
21361;BME280;10839;43.206;23.550;2022-12-07T06:44:05;97111.72;;;4.58;100.00
21361;BME280;10839;43.206;23.550;2022-12-07T06:46:31;97110.66;;;4.51;100.00
21361;BME280;10839;43.206;23.550;2022-12-07T06:48:57;97113.94;;;4.37;100.00
21361;BME280;10839;43.206;23.550;2022-12-07T06:51:23;97109.78;;;4.76;100.00
21361;BME280;10839;43.206;23.550;2022-12-07T06:53:49;97115.84;;;4.86;100.00
21361;BME280;10839;43.206;23.550;2022-12-07T06:56:15;97103.72;;;4.58;100.00
21361;BME280;10839;43.206;23.550;2022-12-07T06:58:41;97105.78;;;4.72;100.00
21361;BME280;10839;43.206;23.550;2022-12-07T07:01:15;97102.47;;;4.78;100.00
21361;BME280;10839;43.206;23.550;2022-12-07T07:03:43;97091.44;;;4.65;100.00
21361;BME280;10839;43.206;23.550;2022-12-07T07:06:09;97095.72;;;4.58;100.00
21361;BME280;10839;43.206;23.550;2022-12-07T07:08:36;97089.84;;;4.80;100.00
21361;BME280;10839;43.206;23.550;2022-12-07T07:11:02;97086.16;;;4.81;100.00
21361;BME280;10839;43.206;23.550;2022-12-07T07:13:29;97100.50;;;4.80;100.00
21361;BME280;10839;43.206;23.550;2022-12-07T07:15:55;97096.22;;;4.95;100.00
21361;BME280;10839;43.206;23.550;2022-12-07T07:18:22;97092.63;;;5.20;100.00
21361;BME280;10839;43.206;23.550;2022-12-07T07:20:48;97096.31;;;4.86;100.00
21361;BME280;10839;43.206;23.550;2022-12-07T07:23:16;97098.81;;;4.79;100.00
21361;BME280;10839;43.206;23.550;2022-12-07T07:25:42;97099.78;;;5.12;100.00
21361;BME280;10839;43.206;23.550;2022-12-07T07:28:08;97104.28;;;5.28;100.00
21361;BME280;10839;43.206;23.550;2022-12-07T07:30:34;97108.66;;;4.79;100.00
21361;BME280;10839;43.206;23.550;2022-12-07T07:33:01;97108.75;;;5.11;100.00
21361;BME280;10839;43.206;23.550;2022-12-07T07:35:29;97113.63;;;5.23;100.00
21361;BME280;10839;43.206;23.550;2022-12-07T07:37:56;97113.31;;;5.27;100.00
21361;BME280;10839;43.206;23.550;2022-12-07T07:40:22;97119.94;;;5.14;100.00
21361;BME280;10839;43.206;23.550;2022-12-07T07:42:50;97112.50;;;5.42;100.00
21361;BME280;10839;43.206;23.550;2022-12-07T07:45:19;97113.66;;;5.40;100.00
21361;BME280;10839;43.206;23.550;2022-12-07T07:47:47;97113.22;;;5.02;100.00
21361;BME280;10839;43.206;23.550;2022-12-07T07:50:13;97112.81;;;5.39;100.00
21361;BME280;10839;43.206;23.550;2022-12-07T07:52:40;97107.69;;;5.62;100.00
21361;BME280;10839;43.206;23.550;2022-12-07T07:55:06;97107.69;;;5.62;100.00
21361;BME280;10839;43.206;23.550;2022-12-07T07:57:38;97100.97;;;5.26;100.00
21361;BME280;10839;43.206;23.550;2022-12-07T08:00:07;97104.69;;;5.41;100.00
21361;BME280;10839;43.206;23.550;2022-12-07T08:02:38;97115.03;;;5.60;100.00
21361;BME280;10839;43.206;23.550;2022-12-07T08:05:04;97107.63;;;5.30;100.00
21361;BME280;10839;43.206;23.550;2022-12-07T08:07:30;97102.34;;;5.78;100.00
21361;BME280;10839;43.206;23.550;2022-12-07T08:09:56;97105.56;;;5.89;100.00
21361;BME280;10839;43.206;23.550;2022-12-07T08:12:22;97106.00;;;5.61;100.00
21361;BME280;10839;43.206;23.550;2022-12-07T08:14:48;97103.69;;;5.58;100.00
21361;BME280;10839;43.206;23.550;2022-12-07T08:17:14;97102.41;;;6.10;100.00
21361;BME280;10839;43.206;23.550;2022-12-07T08:19:41;97102.72;;;6.07;100.00
21361;BME280;10839;43.206;23.550;2022-12-07T08:22:06;97106.00;;;5.61;100.00
21361;BME280;10839;43.206;23.550;2022-12-07T08:24:34;97096.41;;;5.84;100.00
21361;BME280;10839;43.206;23.550;2022-12-07T08:27:00;97097.41;;;5.99;100.00
21361;BME280;10839;43.206;23.550;2022-12-07T08:29:26;97097.38;;;5.75;100.00
21361;BME280;10839;43.206;23.550;2022-12-07T08:31:52;97104.06;;;5.95;100.00
21361;BME280;10839;43.206;23.550;2022-12-07T08:34:18;97097.06;;;5.94;100.00
21361;BME280;10839;43.206;23.550;2022-12-07T08:36:44;97097.06;;;6.10;100.00
21361;BME280;10839;43.206;23.550;2022-12-07T08:39:10;97097.41;;;6.07;100.00
21361;BME280;10839;43.206;23.550;2022-12-07T08:41:36;97093.16;;;6.36;100.00
21361;BME280;10839;43.206;23.550;2022-12-07T08:44:02;97085.63;;;6.48;100.00
21361;BME280;10839;43.206;23.550;2022-12-07T08:46:35;97088.69;;;6.21;100.00
21361;BME280;10839;43.206;23.550;2022-12-07T08:49:11;97084.69;;;6.25;100.00
21361;BME280;10839;43.206;23.550;2022-12-07T08:51:39;97081.03;;;6.10;100.00
21361;BME280;10839;43.206;23.550;2022-12-07T08:54:09;97075.69;;;6.10;100.00
21361;BME280;10839;43.206;23.550;2022-12-07T08:56:36;97067.31;;;6.21;100.00
21361;BME280;10839;43.206;23.550;2022-12-07T08:59:04;97073.91;;;6.49;100.00
21361;BME280;10839;43.206;23.550;2022-12-07T09:01:31;97068.94;;;6.38;100.00
21361;BME280;10839;43.206;23.550;2022-12-07T09:03:58;97065.97;;;6.25;100.00
21361;BME280;10839;43.206;23.550;2022-12-07T09:06:24;97064.84;;;6.11;100.00
21361;BME280;10839;43.206;23.550;2022-12-07T09:08:55;97063.81;;;6.12;100.00
21361;BME280;10839;43.206;23.550;2022-12-07T09:11:24;97063.16;;;6.02;100.00
21361;BME280;10839;43.206;23.550;2022-12-07T09:13:49;97065.19;;;5.84;100.00
21361;BME280;10839;43.206;23.550;2022-12-07T09:16:15;97049.94;;;6.25;100.00
21361;BME280;10839;43.206;23.550;2022-12-07T09:18:41;97053.84;;;6.61;100.00
21361;BME280;10839;43.206;23.550;2022-12-07T09:21:07;97048.59;;;6.29;100.00
21361;BME280;10839;43.206;23.550;2022-12-07T09:23:34;97036.75;;;6.31;100.00
21361;BME280;10839;43.206;23.550;2022-12-07T09:26:04;97046.31;;;6.02;100.00
21361;BME280;10839;43.206;23.550;2022-12-07T09:28:31;97042.97;;;6.00;100.00
21361;BME280;10839;43.206;23.550;2022-12-07T09:30:57;97034.00;;;5.85;100.00
21361;BME280;10839;43.206;23.550;2022-12-07T09:33:23;97038.78;;;6.13;100.00
21361;BME280;10839;43.206;23.550;2022-12-07T09:35:51;97035.84;;;6.55;100.00
21361;BME280;10839;43.206;23.550;2022-12-07T09:38:21;97036.22;;;6.36;100.00
21361;BME280;10839;43.206;23.550;2022-12-07T09:40:47;97030.94;;;6.12;100.00
21361;BME280;10839;43.206;23.550;2022-12-07T09:43:17;97034.53;;;6.43;100.00
21361;BME280;10839;43.206;23.550;2022-12-07T09:45:44;97026.69;;;6.41;100.00
21361;BME280;10839;43.206;23.550;2022-12-07T09:50:55;97016.69;;;6.74;100.00
21361;BME280;10839;43.206;23.550;2022-12-07T09:53:26;97013.22;;;6.66;100.00
21361;BME280;10839;43.206;23.550;2022-12-07T09:55:53;97015.25;;;6.56;100.00
21361;BME280;10839;43.206;23.550;2022-12-07T09:58:25;97010.03;;;6.70;100.00
21361;BME280;10839;43.206;23.550;2022-12-07T10:00:59;97012.53;;;7.02;100.00
21361;BME280;10839;43.206;23.550;2022-12-07T10:03:27;97008.31;;;6.77;100.00
21361;BME280;10839;43.206;23.550;2022-12-07T10:05:54;96997.84;;;6.98;100.00
21361;BME280;10839;43.206;23.550;2022-12-07T10:08:21;96998.63;;;6.76;100.00
21361;BME280;10839;43.206;23.550;2022-12-07T10:10:54;96998.63;;;6.37;100.00
21361;BME280;10839;43.206;23.550;2022-12-07T10:13:44;96993.91;;;6.86;100.00
21361;BME280;10839;43.206;23.550;2022-12-07T10:18:51;96980.09;;;6.36;100.00
21361;BME280;10839;43.206;23.550;2022-12-07T10:21:22;96979.34;;;6.58;100.00
21361;BME280;10839;43.206;23.550;2022-12-07T10:24:05;96986.19;;;6.91;100.00
21361;BME280;10839;43.206;23.550;2022-12-07T10:29:36;96980.66;;;6.62;100.00
21361;BME280;10839;43.206;23.550;2022-12-07T10:34:35;96970.75;;;7.01;100.00
21361;BME280;10839;43.206;23.550;2022-12-07T10:37:15;96975.28;;;6.70;100.00
21361;BME280;10839;43.206;23.550;2022-12-07T10:39:50;96968.78;;;6.95;100.00
21361;BME280;10839;43.206;23.550;2022-12-07T10:42:18;96963.03;;;6.84;100.00
21361;BME280;10839;43.206;23.550;2022-12-07T10:44:44;96965.59;;;6.69;100.00
21361;BME280;10839;43.206;23.550;2022-12-07T10:47:29;96957.75;;;6.98;100.00
21361;BME280;10839;43.206;23.550;2022-12-07T11:12:40;96940.44;;;7.31;100.00
21361;BME280;10839;43.206;23.550;2022-12-07T11:15:22;96942.59;;;7.13;100.00
21361;BME280;10839;43.206;23.550;2022-12-07T11:26:11;96927.22;;;7.07;100.00
21361;BME280;10839;43.206;23.550;2022-12-07T11:29:09;96926.69;;;7.34;100.00
21361;BME280;10839;43.206;23.550;2022-12-07T11:36:51;96914.66;;;7.30;100.00
21361;BME280;10839;43.206;23.550;2022-12-07T11:39:29;96914.81;;;7.51;100.00
21361;BME280;10839;43.206;23.550;2022-12-07T11:42:07;96923.50;;;7.16;100.00
21361;BME280;10839;43.206;23.550;2022-12-07T11:48:02;96897.44;;;7.47;100.00
21361;BME280;10839;43.206;23.550;2022-12-07T11:50:40;96903.75;;;7.17;100.00
21361;BME280;10839;43.206;23.550;2022-12-07T11:56:03;96897.59;;;7.68;100.00
21361;BME280;10839;43.206;23.550;2022-12-07T11:59:06;96892.41;;;7.67;100.00
21361;BME280;10839;43.206;23.550;2022-12-07T12:06:41;96879.94;;;7.59;100.00
21361;BME280;10839;43.206;23.550;2022-12-07T12:09:16;96877.19;;;7.97;100.00
21361;BME280;10839;43.206;23.550;2022-12-07T12:14:31;96881.19;;;8.51;100.00
21361;BME280;10839;43.206;23.550;2022-12-07T12:20:19;96870.41;;;8.15;100.00
21361;BME280;10839;43.206;23.550;2022-12-07T12:22:58;96856.66;;;8.33;100.00
21361;BME280;10839;43.206;23.550;2022-12-07T12:25:28;96854.78;;;8.19;100.00
21361;BME280;10839;43.206;23.550;2022-12-07T12:27:58;96853.13;;;8.18;100.00
21361;BME280;10839;43.206;23.550;2022-12-07T12:30:38;96846.53;;;7.85;100.00
21361;BME280;10839;43.206;23.550;2022-12-07T12:33:21;96850.31;;;7.90;100.00
21361;BME280;10839;43.206;23.550;2022-12-07T12:36:16;96849.16;;;8.14;100.00
21361;BME280;10839;43.206;23.550;2022-12-07T12:39:10;96857.94;;;8.37;100.00
21361;BME280;10839;43.206;23.550;2022-12-07T12:54:36;96862.13;;;8.60;100.00
21361;BME280;10839;43.206;23.550;2022-12-07T12:59:36;96865.41;;;9.19;100.00
21361;BME280;10839;43.206;23.550;2022-12-07T13:02:29;96872.97;;;8.88;100.00
21361;BME280;10839;43.206;23.550;2022-12-07T13:05:20;96865.13;;;8.72;100.00
21361;BME280;10839;43.206;23.550;2022-12-07T13:15:52;96893.06;;;8.13;100.00
21361;BME280;10839;43.206;23.550;2022-12-07T13:18:35;96889.84;;;7.88;100.00
21361;BME280;10839;43.206;23.550;2022-12-07T13:23:59;96872.47;;;7.84;100.00
21361;BME280;10839;43.206;23.550;2022-12-07T13:26:42;96879.94;;;8.18;100.00
21361;BME280;10839;43.206;23.550;2022-12-07T13:31:44;96874.59;;;7.89;100.00
21361;BME280;10839;43.206;23.550;2022-12-07T13:34:36;96880.13;;;7.72;100.00
21361;BME280;10839;43.206;23.550;2022-12-07T13:37:29;96879.38;;;8.08;100.00
21361;BME280;10839;43.206;23.550;2022-12-07T13:40:17;96871.09;;;8.03;100.00
21361;BME280;10839;43.206;23.550;2022-12-07T13:42:44;96873.22;;;7.78;100.00
21361;BME280;10839;43.206;23.550;2022-12-07T13:45:23;96877.91;;;8.05;100.00
21361;BME280;10839;43.206;23.550;2022-12-07T13:48:24;96891.66;;;8.02;100.00
21361;BME280;10839;43.206;23.550;2022-12-07T13:50:55;96873.59;;;7.75;100.00
21361;BME280;10839;43.206;23.550;2022-12-07T13:53:21;96895.06;;;7.52;100.00
21361;BME280;10839;43.206;23.550;2022-12-07T13:55:47;96889.00;;;7.88;100.00
21361;BME280;10839;43.206;23.550;2022-12-07T13:58:14;96886.50;;;8.15;100.00
21361;BME280;10839;43.206;23.550;2022-12-07T14:00:41;96881.16;;;8.01;100.00
21361;BME280;10839;43.206;23.550;2022-12-07T14:05:41;96877.16;;;7.82;100.00
21361;BME280;10839;43.206;23.550;2022-12-07T14:10:42;96884.38;;;7.67;100.00
21361;BME280;10839;43.206;23.550;2022-12-07T14:13:27;96889.00;;;7.58;100.00
21361;BME280;10839;43.206;23.550;2022-12-07T14:15:54;96880.41;;;7.77;100.00
21361;BME280;10839;43.206;23.550;2022-12-07T14:18:37;96883.94;;;7.78;100.00
21361;BME280;10839;43.206;23.550;2022-12-07T14:21:27;96900.41;;;7.52;100.00
21361;BME280;10839;43.206;23.550;2022-12-07T14:24:18;96895.53;;;7.70;100.00
21361;BME280;10839;43.206;23.550;2022-12-07T14:26:46;96899.34;;;7.61;100.00
21361;BME280;10839;43.206;23.550;2022-12-07T14:31:52;96896.75;;;7.53;100.00
21361;BME280;10839;43.206;23.550;2022-12-07T14:34:23;96901.16;;;7.61;100.00
21361;BME280;10839;43.206;23.550;2022-12-07T14:36:50;96895.59;;;7.33;100.00
21361;BME280;10839;43.206;23.550;2022-12-07T14:39:16;96905.81;;;7.30;100.00
21361;BME280;10839;43.206;23.550;2022-12-07T14:45:29;96889.78;;;7.07;100.00
21361;BME280;10839;43.206;23.550;2022-12-07T14:47:56;96911.00;;;7.31;100.00
21361;BME280;10839;43.206;23.550;2022-12-07T14:50:22;96897.81;;;7.44;100.00
21361;BME280;10839;43.206;23.550;2022-12-07T14:52:55;96894.75;;;7.33;100.00
21361;BME280;10839;43.206;23.550;2022-12-07T14:55:27;96903.09;;;7.15;100.00
21361;BME280;10839;43.206;23.550;2022-12-07T14:57:55;96900.56;;;7.36;100.00
21361;BME280;10839;43.206;23.550;2022-12-07T15:00:52;96894.38;;;7.36;100.00
21361;BME280;10839;43.206;23.550;2022-12-07T15:03:18;96897.88;;;6.99;100.00
21361;BME280;10839;43.206;23.550;2022-12-07T15:05:44;96896.09;;;7.14;100.00
21361;BME280;10839;43.206;23.550;2022-12-07T15:08:14;96902.38;;;7.21;100.00
21361;BME280;10839;43.206;23.550;2022-12-07T15:10:40;96901.03;;;7.03;100.00
21361;BME280;10839;43.206;23.550;2022-12-07T15:13:06;96900.72;;;6.98;100.00
21361;BME280;10839;43.206;23.550;2022-12-07T15:15:52;96905.13;;;7.13;100.00
21361;BME280;10839;43.206;23.550;2022-12-07T15:18:19;96906.56;;;7.01;100.00
21361;BME280;10839;43.206;23.550;2022-12-07T15:20:46;96911.31;;;6.91;100.00
21361;BME280;10839;43.206;23.550;2022-12-07T15:23:12;96911.84;;;7.09;100.00
21361;BME280;10839;43.206;23.550;2022-12-07T15:25:42;96905.13;;;7.13;100.00
21361;BME280;10839;43.206;23.550;2022-12-07T15:28:08;96919.38;;;6.83;100.00
21361;BME280;10839;43.206;23.550;2022-12-07T15:30:37;96910.88;;;7.02;100.00
21361;BME280;10839;43.206;23.550;2022-12-07T15:33:03;96914.16;;;6.90;100.00
21361;BME280;10839;43.206;23.550;2022-12-07T15:35:29;96925.91;;;6.81;100.00
21361;BME280;10839;43.206;23.550;2022-12-07T15:37:55;96919.03;;;6.86;100.00